Washington — KLBO — position and weather

sailwx.info

Track history (hours):
 
Tides and Currents Weather Stations Pressure Air Temp Water Temp Dewpoint Dewpoint Depression Visibility Wind Speed Wind Dir Waves Ship Positions

Washington

Owner: Crowley Petroleum Services, Jacksonville, FL. More information available from US FCC via Universal Licensing System and Coast Guard Vessel Documentation Center.

Last reported at 2018-Jul-17 14:35 UTC. Time now 2018-Jul-17 15:11 UTC.
Position N 40°16' W 126°26'.

Length 251 m; draft 7 m.

Type: Ship. MMSI: 368127000.

Date/timePositionNaut miles runAvg speedWind from/ knotsBaromVisibWave heightAir tempDewpointWater temp
2018-Jul-17 14:35N 40°16' W 126°26'113.1
2018-Jul-17 14:28N 40°15' W 126°26'813.1
2018-Jul-17 13:50N 40°07' W 126°26'813.0
2018-Jul-17 13:15N 39°59' W 126°23'413.4
2018-Jul-17 12:58N 39°56' W 126°21'613.2
2018-Jul-17 12:30N 39°51' W 126°17'913.6
2018-Jul-17 11:50N 39°43' W 126°11'613.7
2018-Jul-17 11:22N 39°38' W 126°07'513.4
2018-Jul-17 11:00N 39°33' W 126°03'1013.2
2018-Jul-17 10:15N 39°25' W 125°57'313.4
2018-Jul-17 10:00N 39°22' W 125°55'813.9
2018-Jul-17 09:25N 39°15' W 125°50'1127.3
2018-Jul-17 09:00N 39°05' W 125°42'2 3.4
2018-Jul-17 08:27N 39°03' W 125°41'613.7
2018-Jul-17 08:00N 38°58' W 125°37'813.7
2018-Jul-17 07:25N 38°51' W 125°32'613.7
2018-Jul-17 06:59N 38°46' W 125°28'2813.6
2018-Jul-17 04:58N 38°22' W 125°11'614.0
2018-Jul-17 04:30N 38°16' W 125°07'714.0
2018-Jul-17 04:00N 38°10' W 125°02'713.9
2018-Jul-17 03:30N 38°04' W 124°58'2214.0
2018-Jul-17 01:55N 37°45' W 124°43'613.8
2018-Jul-17 01:30N 37°41' W 124°39'713.7
2018-Jul-17 01:01N 37°35' W 124°35'713.8
2018-Jul-17 00:30N 37°29' W 124°30'1414.1
2018-Jul-16 23:30N 37°17' W 124°20'714.7
2018-Jul-16 23:00N 37°11' W 124°15'715.0
2018-Jul-16 22:30N 37°05' W 124°11'714.9
2018-Jul-16 22:00N 36°58' W 124°06'714.5
2018-Jul-16 21:30N 36°52' W 124°01'714.1
2018-Jul-16 21:00N 36°46' W 123°57'714.2
2018-Jul-16 20:31N 36°39' W 123°57'714.4
2018-Jul-16 20:00N 36°32' W 123°52'714.2
2018-Jul-16 19:30N 36°26' W 123°48'714.1
2018-Jul-16 18:58N 36°20' W 123°43'714.1
2018-Jul-16 18:31N 36°14' W 123°39'713.9
2018-Jul-16 18:01N 36°08' W 123°35'714.3
2018-Jul-16 17:30N 36°02' W 123°30'714.3
2018-Jul-16 17:00N 35°55' W 123°26'714.5
2018-Jul-16 16:31N 35°49' W 123°22'714.5
2018-Jul-16 16:00N 35°43' W 123°17'714.3
2018-Jul-16 15:30N 35°37' W 123°13'713.9
2018-Jul-16 15:01N 35°31' W 123°09'714.2
2018-Jul-16 14:31N 35°25' W 123°04'714.1
2018-Jul-16 14:01N 35°18' W 123°00'714.3
2018-Jul-16 13:31N 35°12' W 122°56'714.7
2018-Jul-16 13:00N 35°06' W 122°51'815.0
2018-Jul-16 12:30N 34°59' W 122°47'714.9
2018-Jul-16 12:00N 34°53' W 122°42'714.3
2018-Jul-16 11:30N 34°47' W 122°36'714.2
2018-Jul-16 11:00N 34°42' W 122°30'714.4
2018-Jul-16 10:31N 34°38' W 122°24'714.3
2018-Jul-16 10:01N 34°33' W 122°17'714.4
2018-Jul-16 09:30N 34°28' W 122°11'714.7
2018-Jul-16 09:00N 34°23' W 122°04'714.5
2018-Jul-16 08:31N 34°18' W 121°58'714.6
2018-Jul-16 08:01N 34°13' W 121°51'714.7
2018-Jul-16 07:31N 34°08' W 121°45'714.5
2018-Jul-16 07:01N 34°03' W 121°38'714.4
2018-Jul-16 06:31N 33°58' W 121°32'713.9
2018-Jul-16 06:00N 33°54' W 121°26'713.9
2018-Jul-16 05:30N 33°49' W 121°20'713.9
2018-Jul-16 05:00N 33°45' W 121°13'713.5
2018-Jul-16 04:30N 33°42' W 121°05'714.3
2018-Jul-16 04:00N 33°42' W 120°57'714.2
2018-Jul-16 03:30N 33°42' W 120°48'714.1
2018-Jul-16 03:01N 33°42' W 120°40'714.1
2018-Jul-16 02:30N 33°42' W 120°31'714.4
2018-Jul-16 02:00N 33°42' W 120°23'814.1
2018-Jul-16 01:27N 33°43' W 120°13'613.5
2018-Jul-16 01:00N 33°41' W 120°06'713.7
2018-Jul-16 00:30N 33°41' W 119°58'814.1
2018-Jul-15 23:58N 33°41' W 119°49'714.9
2018-Jul-15 23:30N 33°41' W 119°41'815.0
2018-Jul-15 23:00N 33°41' W 119°32'714.8
2018-Jul-15 22:30N 33°41' W 119°23'714.1
2018-Jul-15 21:59N 33°41' W 119°14'612.6
2018-Jul-15 21:30N 33°41' W 119°07'611.8
2018-Jul-15 21:00N 33°41' W 118°60'612.0
2018-Jul-15 20:30N 33°40' W 118°53'611.7
2018-Jul-15 20:00N 33°40' W 118°45'611.7
2018-Jul-15 19:30N 33°39' W 118°38'611.5
2018-Jul-15 19:00N 33°39' W 118°32'611.8
2018-Jul-15 18:30N 33°39' W 118°24'611.9
2018-Jul-15 18:00N 33°38' W 118°17'510.1
2018-Jul-15 17:30N 33°40' W 118°12'4 7.6
2018-Jul-15 17:00N 33°44' W 118°12'1 3.0
2018-Jul-15 16:30N 33°45' W 118°13'0 0.1
2018-Jul-15 16:00N 33°45' W 118°13'0 0.0
2018-Jul-15 15:29N 33°45' W 118°13'0 0.0
2018-Jul-15 14:59N 33°45' W 118°13'0 0.0
2018-Jul-15 14:23N 33°45' W 118°13'0 0.0
2018-Jul-15 13:56N 33°45' W 118°13'0 0.0
2018-Jul-15 13:30N 33°45' W 118°13'0 0.0
2018-Jul-15 12:57N 33°45' W 118°13'0 0.0
2018-Jul-15 12:30N 33°45' W 118°13'0 0.0
2018-Jul-15 12:00N 33°45' W 118°13'0 0.0
2018-Jul-15 11:30N 33°45' W 118°13'0 0.0
2018-Jul-15 11:00N 33°45' W 118°13'0 0.0
2018-Jul-15 10:30N 33°45' W 118°13'0 0.0
2018-Jul-15 09:54N 33°45' W 118°13'0 0.0
2018-Jul-15 09:30N 33°45' W 118°13'0 0.0
2018-Jul-15 08:59N 33°45' W 118°13'0 0.0
2018-Jul-15 08:29N 33°45' W 118°13'0 0.0
2018-Jul-15 07:59N 33°45' W 118°13'0 0.0
2018-Jul-15 07:29N 33°45' W 118°13'0 0.0
2018-Jul-15 06:59N 33°45' W 118°13'0 0.0
2018-Jul-15 06:29N 33°45' W 118°13'0 0.0
2018-Jul-15 05:59N 33°45' W 118°13'0 0.0
2018-Jul-15 05:29N 33°45' W 118°13'0 0.0
2018-Jul-15 04:59N 33°45' W 118°13'0 0.0
2018-Jul-15 04:29N 33°45' W 118°13'0 0.0
2018-Jul-15 03:59N 33°45' W 118°13'0 0.0
2018-Jul-15 03:29N 33°45' W 118°13'0 0.0
2018-Jul-15 02:56N 33°45' W 118°13'0 0.0
2018-Jul-15 02:26N 33°45' W 118°13'0 0.0
2018-Jul-15 01:56N 33°45' W 118°13'0 0.0
2018-Jul-15 01:26N 33°45' W 118°13'0 0.0
2018-Jul-15 00:59N 33°45' W 118°13'0 0.0
2018-Jul-15 00:29N 33°45' W 118°13'0 0.0
2018-Jul-14 23:59N 33°45' W 118°13'0 0.0
2018-Jul-14 23:29N 33°45' W 118°13'0 0.0
2018-Jul-14 22:56N 33°45' W 118°13'0 0.0
2018-Jul-14 22:29N 33°45' W 118°13'0 0.0
2018-Jul-14 21:56N 33°45' W 118°13'0 0.0
2018-Jul-14 21:17N 33°45' W 118°13'0 0.0
2018-Jul-14 20:53N 33°45' W 118°13'0 0.0
2018-Jul-14 20:26N 33°45' W 118°13'0 0.0
2018-Jul-14 19:59N 33°45' W 118°13'0 0.0
2018-Jul-14 19:29N 33°45' W 118°13'0 0.0
2018-Jul-14 18:44N 33°45' W 118°13'0 0.0
2018-Jul-14 18:20N 33°45' W 118°13'0 0.0
2018-Jul-14 17:38N 33°45' W 118°13'0 0.0
2018-Jul-14 17:17N 33°45' W 118°13'0 0.0
2018-Jul-14 16:50N 33°45' W 118°13'0 0.0
2018-Jul-14 16:29N 33°45' W 118°13'0 0.0
2018-Jul-14 15:56N 33°45' W 118°13'0 0.0
2018-Jul-14 15:23N 33°45' W 118°13'0 0.0
2018-Jul-14 14:53N 33°45' W 118°13'0 0.0
2018-Jul-14 14:20N 33°45' W 118°13'0 0.0
2018-Jul-14 13:23N 33°45' W 118°13'0 0.0
2018-Jul-14 12:59N 33°45' W 118°13'0 0.0
2018-Jul-14 12:29N 33°45' W 118°13'0 0.0
2018-Jul-14 11:56N 33°45' W 118°13'0 0.0
2018-Jul-14 11:29N 33°45' W 118°13'0 0.0
2018-Jul-14 10:59N 33°45' W 118°13'0 0.3
2018-Jul-14 10:30N 33°45' W 118°13'1 2.7
2018-Jul-14 10:00N 33°44' W 118°12'0 0.6
2018-Jul-14 09:28N 33°44' W 118°12'0 0.1
2018-Jul-14 08:58N 33°44' W 118°12'0 0.0
2018-Jul-14 08:28N 33°44' W 118°12'0 0.0
2018-Jul-14 07:58N 33°44' W 118°12'0 0.0
2018-Jul-14 07:28N 33°44' W 118°12'0 0.0
2018-Jul-14 06:58N 33°44' W 118°12'0 0.0
2018-Jul-14 06:28N 33°44' W 118°12'0 0.0
2018-Jul-14 05:58N 33°44' W 118°12'0 0.0
2018-Jul-14 05:28N 33°44' W 118°12'0 0.0
2018-Jul-14 04:58N 33°44' W 118°12'0 0.0
2018-Jul-14 04:28N 33°44' W 118°12'0 0.0
2018-Jul-14 03:58N 33°44' W 118°12'0 0.0
2018-Jul-14 03:28N 33°44' W 118°12'0 0.0
2018-Jul-14 02:58N 33°44' W 118°12'0 0.0
2018-Jul-14 02:28N 33°44' W 118°12'0 0.0
2018-Jul-14 01:58N 33°44' W 118°12'0 0.0
2018-Jul-14 01:28N 33°44' W 118°12'0 0.0
2018-Jul-14 00:58N 33°44' W 118°12'0 0.0
2018-Jul-14 00:28N 33°44' W 118°12'0 0.0
2018-Jul-13 23:58N 33°44' W 118°12'0 0.0
2018-Jul-13 23:28N 33°44' W 118°12'0 0.0
2018-Jul-13 22:58N 33°44' W 118°12'0 0.0
2018-Jul-13 22:28N 33°44' W 118°12'0 0.0
2018-Jul-13 21:58N 33°44' W 118°12'0 0.0
2018-Jul-13 21:28N 33°44' W 118°12'0 0.0
2018-Jul-13 20:58N 33°44' W 118°12'0 0.0
2018-Jul-13 20:28N 33°44' W 118°12'0 0.0
2018-Jul-13 19:58N 33°44' W 118°12'0 0.0
2018-Jul-13 19:28N 33°44' W 118°12'0 0.1
2018-Jul-13 18:58N 33°44' W 118°12'0 0.1
2018-Jul-13 18:28N 33°44' W 118°12'0 0.1
2018-Jul-13 17:58N 33°44' W 118°12'0 0.1
2018-Jul-13 17:28N 33°44' W 118°12'0 0.0
2018-Jul-13 16:58N 33°44' W 118°12'0 0.0
2018-Jul-13 16:28N 33°44' W 118°12'0 0.0
2018-Jul-13 16:00N 33°44' W 118°12'0 0.1
2018-Jul-13 15:31N 33°44' W 118°12'0 0.0
2018-Jul-13 14:57N 33°44' W 118°12'0 0.1
2018-Jul-13 13:59N 33°44' W 118°12'0 0.1
2018-Jul-13 13:29N 33°44' W 118°12'0 0.0
2018-Jul-13 12:59N 33°44' W 118°12'0 0.1
2018-Jul-13 12:29N 33°44' W 118°12'0 0.0
2018-Jul-13 11:59N 33°44' W 118°12'0 0.0
2018-Jul-13 11:29N 33°44' W 118°12'0 0.0
2018-Jul-13 11:00N 33°44' W 118°12'0 0.0
2018-Jul-13 10:30N 33°44' W 118°12'0 0.0
2018-Jul-13 10:00N 33°44' W 118°12'0 0.0
2018-Jul-13 09:30N 33°44' W 118°12'0 0.0
2018-Jul-13 09:00N 33°44' W 118°12'0 0.0
2018-Jul-13 08:30N 33°44' W 118°12'0 0.0
2018-Jul-13 08:00N 33°44' W 118°12'0 0.0
2018-Jul-13 07:30N 33°44' W 118°12'0 0.0
2018-Jul-13 07:00N 33°44' W 118°12'0 0.0
2018-Jul-13 06:30N 33°44' W 118°12'0 0.0
2018-Jul-13 06:00N 33°44' W 118°12'0 0.0
2018-Jul-13 05:30N 33°44' W 118°12'0 0.0
2018-Jul-13 05:00N 33°44' W 118°12'0 0.0
2018-Jul-13 04:30N 33°44' W 118°12'0 0.0
2018-Jul-13 04:00N 33°44' W 118°12'0 0.0
2018-Jul-13 03:30N 33°44' W 118°12'0 0.0
2018-Jul-13 03:00N 33°44' W 118°12'0 0.0
2018-Jul-13 02:30N 33°44' W 118°12'0 0.0
2018-Jul-13 02:00N 33°44' W 118°12'0 0.0
2018-Jul-13 01:30N 33°44' W 118°12'0 0.0
2018-Jul-13 01:00N 33°44' W 118°12'0 0.0
2018-Jul-13 00:30N 33°44' W 118°12'0 0.0
2018-Jul-13 00:00N 33°44' W 118°12'0 0.0
2018-Jul-12 23:30N 33°44' W 118°12'0 0.0
2018-Jul-12 23:00N 33°44' W 118°12'0 0.0
2018-Jul-12 22:30N 33°44' W 118°12'0 0.0
2018-Jul-12 22:00N 33°44' W 118°12'0 0.0
2018-Jul-12 21:30N 33°44' W 118°12'0 0.0
2018-Jul-12 21:00N 33°44' W 118°12'0 0.0
2018-Jul-12 20:30N 33°44' W 118°12'0 0.1
2018-Jul-12 20:00N 33°44' W 118°12'0 0.1
2018-Jul-12 19:30N 33°44' W 118°12'0 0.2
2018-Jul-12 19:00N 33°44' W 118°12'0 0.0
2018-Jul-12 18:30N 33°44' W 118°12'0 0.1
2018-Jul-12 18:00N 33°44' W 118°12'0 0.0
2018-Jul-12 17:30N 33°44' W 118°12'0 0.0
2018-Jul-12 17:00N 33°44' W 118°12'0 0.0
2018-Jul-12 16:30N 33°44' W 118°12'0 0.1
2018-Jul-12 16:00N 33°44' W 118°12'0 0.1
2018-Jul-12 15:30N 33°44' W 118°12'0 0.0
2018-Jul-12 14:58N 33°44' W 118°12'0 0.2
2018-Jul-12 14:28N 33°44' W 118°12'0 0.1
2018-Jul-12 13:58N 33°44' W 118°12'0 0.1
2018-Jul-12 13:28N 33°44' W 118°12'0 0.1
2018-Jul-12 12:58N 33°44' W 118°12'0 0.1
2018-Jul-12 12:28N 33°44' W 118°12'0 0.0
2018-Jul-12 11:58N 33°44' W 118°12'0 0.0
2018-Jul-12 11:28N 33°44' W 118°12'0 0.0
2018-Jul-12 10:58N 33°44' W 118°12'0 0.0
2018-Jul-12 10:28N 33°44' W 118°12'0 0.0
2018-Jul-12 09:58N 33°44' W 118°12'0 0.0
2018-Jul-12 09:28N 33°44' W 118°12'0 0.0
2018-Jul-12 08:58N 33°44' W 118°12'0 0.0
2018-Jul-12 08:30N 33°44' W 118°12'0 0.1
2018-Jul-12 08:00N 33°44' W 118°12'1 2.8
2018-Jul-12 07:30N 33°43' W 118°11'3 7.0
2018-Jul-12 07:00N 33°39' W 118°11'5 9.8
2018-Jul-12 06:30N 33°36' W 118°15'611.3
2018-Jul-12 06:00N 33°36' W 118°22'611.4
2018-Jul-12 05:30N 33°36' W 118°29'611.4
2018-Jul-12 05:00N 33°36' W 118°36'611.9
2018-Jul-12 04:30N 33°36' W 118°43'611.9
2018-Jul-12 04:00N 33°37' W 118°50'611.6
2018-Jul-12 03:30N 33°38' W 118°57'611.2
2018-Jul-12 03:01N 33°38' W 119°03'612.0
2018-Jul-12 02:30N 33°38' W 119°11'612.1
2018-Jul-12 01:59N 33°38' W 119°18'612.1
2018-Jul-12 01:30N 33°38' W 119°25'611.9
2018-Jul-12 01:00N 33°38' W 119°32'612.1
2018-Jul-12 00:31N 33°38' W 119°40'612.8
2018-Jul-12 00:00N 33°38' W 119°47'612.5
2018-Jul-11 23:30N 33°38' W 119°55'612.4
2018-Jul-11 23:00N 33°38' W 120°02'612.5
2018-Jul-11 22:30N 33°38' W 120°10'612.3
2018-Jul-11 22:00N 33°38' W 120°17'612.1
2018-Jul-11 21:30N 33°38' W 120°24'612.1
2018-Jul-11 21:00N 33°38' W 120°32'4 8.0
2018-Jul-11 20:30N 33°38' W 120°36'510.2
2018-Jul-11 20:01N 33°38' W 120°43'612.0
2018-Jul-11 19:30N 33°38' W 120°50'612.2
2018-Jul-11 19:00N 33°39' W 120°57'612.2
2018-Jul-11 18:30N 33°40' W 121°04'612.3
2018-Jul-11 18:00N 33°42' W 121°11'612.1
2018-Jul-11 17:30N 33°45' W 121°18'612.4
2018-Jul-11 17:00N 33°49' W 121°24'712.3
2018-Jul-11 16:28N 33°53' W 121°30'612.2
2018-Jul-11 16:00N 33°56' W 121°36'612.3
2018-Jul-11 15:30N 33°59' W 121°42'612.2
2018-Jul-11 15:00N 34°03' W 121°48'612.1
2018-Jul-11 14:29N 34°07' W 121°54'611.9
2018-Jul-11 14:00N 34°10' W 121°59'612.0
2018-Jul-11 13:30N 34°14' W 122°05'611.7
2018-Jul-11 13:00N 34°17' W 122°11'612.0
2018-Jul-11 12:30N 34°20' W 122°17'611.8
2018-Jul-11 12:00N 34°24' W 122°23'611.7
2018-Jul-11 11:30N 34°27' W 122°29'611.9
2018-Jul-11 11:00N 34°31' W 122°34'612.2
2018-Jul-11 10:30N 34°35' W 122°40'612.3
2018-Jul-11 10:00N 34°38' W 122°46'612.2
2018-Jul-11 09:31N 34°42' W 122°52'612.1
2018-Jul-11 09:00N 34°45' W 122°58'612.1
2018-Jul-11 08:30N 34°49' W 123°04'612.0
2018-Jul-11 08:00N 34°52' W 123°10'611.9
2018-Jul-11 07:30N 34°56' W 123°16'611.9
2018-Jul-11 07:00N 34°59' W 123°22'612.0
2018-Jul-11 06:30N 35°03' W 123°28'611.8
2018-Jul-11 06:00N 35°06' W 123°34'611.8
2018-Jul-11 05:30N 35°09' W 123°40'611.7
2018-Jul-11 05:00N 35°13' W 123°46'612.0
2018-Jul-11 04:30N 35°16' W 123°52'611.8
2018-Jul-11 04:00N 35°20' W 123°58'611.9
2018-Jul-11 03:30N 35°23' W 124°04'611.7
2018-Jul-11 03:00N 35°27' W 124°09'611.8
2018-Jul-11 02:30N 35°30' W 124°15'612.0
2018-Jul-11 01:59N 35°34' W 124°21'611.9
2018-Jul-11 01:30N 35°37' W 124°27'711.8
2018-Jul-11 00:57N 35°41' W 124°34'511.8
2018-Jul-11 00:30N 35°44' W 124°39'611.6
2018-Jul-11 00:00N 35°47' W 124°45'611.6
2018-Jul-10 23:30N 35°51' W 124°50'611.5
2018-Jul-10 23:00N 35°54' W 124°56'611.6
2018-Jul-10 22:30N 35°58' W 125°02'611.8
2018-Jul-10 21:59N 36°01' W 125°08'811.7
2018-Jul-10 21:20N 36°06' W 125°16'711.7
2018-Jul-10 20:44N 36°10' W 125°23'312.1
2018-Jul-10 20:30N 36°12' W 125°25'8512.1
2018-Jul-10 13:32N 37°00' W 126°52'112.1
2018-Jul-10 13:29N 37°01' W 126°52'3813.0
2018-Jul-10 10:33N 37°23' W 127°31'113.0
2018-Jul-10 10:30N 37°24' W 127°32'1413.0
2018-Jul-10 09:27N 37°31' W 127°46'1713.0
2018-Jul-10 08:10N 37°41' W 128°03'213.1
2018-Jul-10 08:00N 37°43' W 128°04'713.0
2018-Jul-10 07:28N 37°49' W 128°09'612.8
2018-Jul-10 07:00N 37°54' W 128°13'612.9
2018-Jul-10 06:30N 37°59' W 128°18'  
Track history (hours):
 
Tides and Currents Weather Stations Pressure Air Temp Water Temp Dewpoint Dewpoint Depression Visibility Wind Speed Wind Dir Waves Ship Positions

Washington

Owner: Crowley Petroleum Services, Jacksonville, FL. More information available from US FCC via Universal Licensing System and Coast Guard Vessel Documentation Center.

Last reported at 2018-Jul-17 14:35 UTC. Time now 2018-Jul-17 15:11 UTC.
Position N 40°16' W 126°26'.

Length 251 m; draft 7 m.

Type: Ship. MMSI: 368127000.

Date/timePositionNaut miles runAvg speedWind from/ knotsBaromVisibWave heightAir tempDewpointWater temp
2018-Jul-17 14:35N 40°16' W 126°26'113.1
2018-Jul-17 14:28N 40°15' W 126°26'813.1
2018-Jul-17 13:50N 40°07' W 126°26'813.0
2018-Jul-17 13:15N 39°59' W 126°23'413.4
2018-Jul-17 12:58N 39°56' W 126°21'613.2
2018-Jul-17 12:30N 39°51' W 126°17'913.6
2018-Jul-17 11:50N 39°43' W 126°11'613.7
2018-Jul-17 11:22N 39°38' W 126°07'513.4
2018-Jul-17 11:00N 39°33' W 126°03'1013.2
2018-Jul-17 10:15N 39°25' W 125°57'313.4
2018-Jul-17 10:00N 39°22' W 125°55'813.9
2018-Jul-17 09:25N 39°15' W 125°50'1127.3
2018-Jul-17 09:00N 39°05' W 125°42'2 3.4
2018-Jul-17 08:27N 39°03' W 125°41'613.7
2018-Jul-17 08:00N 38°58' W 125°37'813.7
2018-Jul-17 07:25N 38°51' W 125°32'613.7
2018-Jul-17 06:59N 38°46' W 125°28'2813.6
2018-Jul-17 04:58N 38°22' W 125°11'614.0
2018-Jul-17 04:30N 38°16' W 125°07'714.0
2018-Jul-17 04:00N 38°10' W 125°02'713.9
2018-Jul-17 03:30N 38°04' W 124°58'2214.0
2018-Jul-17 01:55N 37°45' W 124°43'613.8
2018-Jul-17 01:30N 37°41' W 124°39'713.7
2018-Jul-17 01:01N 37°35' W 124°35'713.8
2018-Jul-17 00:30N 37°29' W 124°30'1414.1
2018-Jul-16 23:30N 37°17' W 124°20'714.7
2018-Jul-16 23:00N 37°11' W 124°15'715.0
2018-Jul-16 22:30N 37°05' W 124°11'714.9
2018-Jul-16 22:00N 36°58' W 124°06'714.5
2018-Jul-16 21:30N 36°52' W 124°01'714.1
2018-Jul-16 21:00N 36°46' W 123°57'714.2
2018-Jul-16 20:31N 36°39' W 123°57'714.4
2018-Jul-16 20:00N 36°32' W 123°52'714.2
2018-Jul-16 19:30N 36°26' W 123°48'714.1
2018-Jul-16 18:58N 36°20' W 123°43'714.1
2018-Jul-16 18:31N 36°14' W 123°39'713.9
2018-Jul-16 18:01N 36°08' W 123°35'714.3
2018-Jul-16 17:30N 36°02' W 123°30'714.3
2018-Jul-16 17:00N 35°55' W 123°26'714.5
2018-Jul-16 16:31N 35°49' W 123°22'714.5
2018-Jul-16 16:00N 35°43' W 123°17'714.3
2018-Jul-16 15:30N 35°37' W 123°13'713.9
2018-Jul-16 15:01N 35°31' W 123°09'714.2
2018-Jul-16 14:31N 35°25' W 123°04'714.1
2018-Jul-16 14:01N 35°18' W 123°00'714.3
2018-Jul-16 13:31N 35°12' W 122°56'714.7
2018-Jul-16 13:00N 35°06' W 122°51'815.0
2018-Jul-16 12:30N 34°59' W 122°47'714.9
2018-Jul-16 12:00N 34°53' W 122°42'714.3
2018-Jul-16 11:30N 34°47' W 122°36'714.2
2018-Jul-16 11:00N 34°42' W 122°30'714.4
2018-Jul-16 10:31N 34°38' W 122°24'714.3
2018-Jul-16 10:01N 34°33' W 122°17'714.4
2018-Jul-16 09:30N 34°28' W 122°11'714.7
2018-Jul-16 09:00N 34°23' W 122°04'714.5
2018-Jul-16 08:31N 34°18' W 121°58'714.6
2018-Jul-16 08:01N 34°13' W 121°51'714.7
2018-Jul-16 07:31N 34°08' W 121°45'714.5
2018-Jul-16 07:01N 34°03' W 121°38'714.4
2018-Jul-16 06:31N 33°58' W 121°32'713.9
2018-Jul-16 06:00N 33°54' W 121°26'713.9
2018-Jul-16 05:30N 33°49' W 121°20'713.9
2018-Jul-16 05:00N 33°45' W 121°13'713.5
2018-Jul-16 04:30N 33°42' W 121°05'714.3
2018-Jul-16 04:00N 33°42' W 120°57'714.2
2018-Jul-16 03:30N 33°42' W 120°48'714.1
2018-Jul-16 03:01N 33°42' W 120°40'714.1
2018-Jul-16 02:30N 33°42' W 120°31'714.4
2018-Jul-16 02:00N 33°42' W 120°23'814.1
2018-Jul-16 01:27N 33°43' W 120°13'613.5
2018-Jul-16 01:00N 33°41' W 120°06'713.7
2018-Jul-16 00:30N 33°41' W 119°58'814.1
2018-Jul-15 23:58N 33°41' W 119°49'714.9
2018-Jul-15 23:30N 33°41' W 119°41'815.0
2018-Jul-15 23:00N 33°41' W 119°32'714.8
2018-Jul-15 22:30N 33°41' W 119°23'714.1
2018-Jul-15 21:59N 33°41' W 119°14'612.6
2018-Jul-15 21:30N 33°41' W 119°07'611.8
2018-Jul-15 21:00N 33°41' W 118°60'612.0
2018-Jul-15 20:30N 33°40' W 118°53'611.7
2018-Jul-15 20:00N 33°40' W 118°45'611.7
2018-Jul-15 19:30N 33°39' W 118°38'611.5
2018-Jul-15 19:00N 33°39' W 118°32'611.8
2018-Jul-15 18:30N 33°39' W 118°24'611.9
2018-Jul-15 18:00N 33°38' W 118°17'510.1
2018-Jul-15 17:30N 33°40' W 118°12'4 7.6
2018-Jul-15 17:00N 33°44' W 118°12'1 3.0
2018-Jul-15 16:30N 33°45' W 118°13'0 0.1
2018-Jul-15 16:00N 33°45' W 118°13'0 0.0
2018-Jul-15 15:29N 33°45' W 118°13'0 0.0
2018-Jul-15 14:59N 33°45' W 118°13'0 0.0
2018-Jul-15 14:23N 33°45' W 118°13'0 0.0
2018-Jul-15 13:56N 33°45' W 118°13'0 0.0
2018-Jul-15 13:30N 33°45' W 118°13'0 0.0
2018-Jul-15 12:57N 33°45' W 118°13'0 0.0
2018-Jul-15 12:30N 33°45' W 118°13'0 0.0
2018-Jul-15 12:00N 33°45' W 118°13'0 0.0
2018-Jul-15 11:30N 33°45' W 118°13'0 0.0
2018-Jul-15 11:00N 33°45' W 118°13'0 0.0
2018-Jul-15 10:30N 33°45' W 118°13'0 0.0
2018-Jul-15 09:54N 33°45' W 118°13'0 0.0
2018-Jul-15 09:30N 33°45' W 118°13'0 0.0
2018-Jul-15 08:59N 33°45' W 118°13'0 0.0
2018-Jul-15 08:29N 33°45' W 118°13'0 0.0
2018-Jul-15 07:59N 33°45' W 118°13'0 0.0
2018-Jul-15 07:29N 33°45' W 118°13'0 0.0
2018-Jul-15 06:59N 33°45' W 118°13'0 0.0
2018-Jul-15 06:29N 33°45' W 118°13'0 0.0
2018-Jul-15 05:59N 33°45' W 118°13'0 0.0
2018-Jul-15 05:29N 33°45' W 118°13'0 0.0
2018-Jul-15 04:59N 33°45' W 118°13'0 0.0
2018-Jul-15 04:29N 33°45' W 118°13'0 0.0
2018-Jul-15 03:59N 33°45' W 118°13'0 0.0
2018-Jul-15 03:29N 33°45' W 118°13'0 0.0
2018-Jul-15 02:56N 33°45' W 118°13'0 0.0
2018-Jul-15 02:26N 33°45' W 118°13'0 0.0
2018-Jul-15 01:56N 33°45' W 118°13'0 0.0
2018-Jul-15 01:26N 33°45' W 118°13'0 0.0
2018-Jul-15 00:59N 33°45' W 118°13'0 0.0
2018-Jul-15 00:29N 33°45' W 118°13'0 0.0
2018-Jul-14 23:59N 33°45' W 118°13'0 0.0
2018-Jul-14 23:29N 33°45' W 118°13'0 0.0
2018-Jul-14 22:56N 33°45' W 118°13'0 0.0
2018-Jul-14 22:29N 33°45' W 118°13'0 0.0
2018-Jul-14 21:56N 33°45' W 118°13'0 0.0
2018-Jul-14 21:17N 33°45' W 118°13'0 0.0
2018-Jul-14 20:53N 33°45' W 118°13'0 0.0
2018-Jul-14 20:26N 33°45' W 118°13'0 0.0
2018-Jul-14 19:59N 33°45' W 118°13'0 0.0
2018-Jul-14 19:29N 33°45' W 118°13'0 0.0
2018-Jul-14 18:44N 33°45' W 118°13'0 0.0
2018-Jul-14 18:20N 33°45' W 118°13'0 0.0
2018-Jul-14 17:38N 33°45' W 118°13'0 0.0
2018-Jul-14 17:17N 33°45' W 118°13'0 0.0
2018-Jul-14 16:50N 33°45' W 118°13'0 0.0
2018-Jul-14 16:29N 33°45' W 118°13'0 0.0
2018-Jul-14 15:56N 33°45' W 118°13'0 0.0
2018-Jul-14 15:23N 33°45' W 118°13'0 0.0
2018-Jul-14 14:53N 33°45' W 118°13'0 0.0
2018-Jul-14 14:20N 33°45' W 118°13'0 0.0
2018-Jul-14 13:23N 33°45' W 118°13'0 0.0
2018-Jul-14 12:59N 33°45' W 118°13'0 0.0
2018-Jul-14 12:29N 33°45' W 118°13'0 0.0
2018-Jul-14 11:56N 33°45' W 118°13'0 0.0
2018-Jul-14 11:29N 33°45' W 118°13'0 0.0
2018-Jul-14 10:59N 33°45' W 118°13'0 0.3
2018-Jul-14 10:30N 33°45' W 118°13'1 2.7
2018-Jul-14 10:00N 33°44' W 118°12'0 0.6
2018-Jul-14 09:28N 33°44' W 118°12'0 0.1
2018-Jul-14 08:58N 33°44' W 118°12'0 0.0
2018-Jul-14 08:28N 33°44' W 118°12'0 0.0
2018-Jul-14 07:58N 33°44' W 118°12'0 0.0
2018-Jul-14 07:28N 33°44' W 118°12'0 0.0
2018-Jul-14 06:58N 33°44' W 118°12'0 0.0
2018-Jul-14 06:28N 33°44' W 118°12'0 0.0
2018-Jul-14 05:58N 33°44' W 118°12'0 0.0
2018-Jul-14 05:28N 33°44' W 118°12'0 0.0
2018-Jul-14 04:58N 33°44' W 118°12'0 0.0
2018-Jul-14 04:28N 33°44' W 118°12'0 0.0
2018-Jul-14 03:58N 33°44' W 118°12'0 0.0
2018-Jul-14 03:28N 33°44' W 118°12'0 0.0
2018-Jul-14 02:58N 33°44' W 118°12'0 0.0
2018-Jul-14 02:28N 33°44' W 118°12'0 0.0
2018-Jul-14 01:58N 33°44' W 118°12'0 0.0
2018-Jul-14 01:28N 33°44' W 118°12'0 0.0
2018-Jul-14 00:58N 33°44' W 118°12'0 0.0
2018-Jul-14 00:28N 33°44' W 118°12'0 0.0
2018-Jul-13 23:58N 33°44' W 118°12'0 0.0
2018-Jul-13 23:28N 33°44' W 118°12'0 0.0
2018-Jul-13 22:58N 33°44' W 118°12'0 0.0
2018-Jul-13 22:28N 33°44' W 118°12'0 0.0
2018-Jul-13 21:58N 33°44' W 118°12'0 0.0
2018-Jul-13 21:28N 33°44' W 118°12'0 0.0
2018-Jul-13 20:58N 33°44' W 118°12'0 0.0
2018-Jul-13 20:28N 33°44' W 118°12'0 0.0
2018-Jul-13 19:58N 33°44' W 118°12'0 0.0
2018-Jul-13 19:28N 33°44' W 118°12'0 0.1
2018-Jul-13 18:58N 33°44' W 118°12'0 0.1
2018-Jul-13 18:28N 33°44' W 118°12'0 0.1
2018-Jul-13 17:58N 33°44' W 118°12'0 0.1
2018-Jul-13 17:28N 33°44' W 118°12'0 0.0
2018-Jul-13 16:58N 33°44' W 118°12'0 0.0
2018-Jul-13 16:28N 33°44' W 118°12'0 0.0
2018-Jul-13 16:00N 33°44' W 118°12'0 0.1
2018-Jul-13 15:31N 33°44' W 118°12'0 0.0
2018-Jul-13 14:57N 33°44' W 118°12'0 0.1
2018-Jul-13 13:59N 33°44' W 118°12'0 0.1
2018-Jul-13 13:29N 33°44' W 118°12'0 0.0
2018-Jul-13 12:59N 33°44' W 118°12'0 0.1
2018-Jul-13 12:29N 33°44' W 118°12'0 0.0
2018-Jul-13 11:59N 33°44' W 118°12'0 0.0
2018-Jul-13 11:29N 33°44' W 118°12'0 0.0
2018-Jul-13 11:00N 33°44' W 118°12'0 0.0
2018-Jul-13 10:30N 33°44' W 118°12'0 0.0
2018-Jul-13 10:00N 33°44' W 118°12'0 0.0
2018-Jul-13 09:30N 33°44' W 118°12'0 0.0
2018-Jul-13 09:00N 33°44' W 118°12'0 0.0
2018-Jul-13 08:30N 33°44' W 118°12'0 0.0
2018-Jul-13 08:00N 33°44' W 118°12'0 0.0
2018-Jul-13 07:30N 33°44' W 118°12'0 0.0
2018-Jul-13 07:00N 33°44' W 118°12'0 0.0
2018-Jul-13 06:30N 33°44' W 118°12'0 0.0
2018-Jul-13 06:00N 33°44' W 118°12'0 0.0
2018-Jul-13 05:30N 33°44' W 118°12'0 0.0
2018-Jul-13 05:00N 33°44' W 118°12'0 0.0
2018-Jul-13 04:30N 33°44' W 118°12'0 0.0
2018-Jul-13 04:00N 33°44' W 118°12'0 0.0
2018-Jul-13 03:30N 33°44' W 118°12'0 0.0
2018-Jul-13 03:00N 33°44' W 118°12'0 0.0
2018-Jul-13 02:30N 33°44' W 118°12'0 0.0
2018-Jul-13 02:00N 33°44' W 118°12'0 0.0
2018-Jul-13 01:30N 33°44' W 118°12'0 0.0
2018-Jul-13 01:00N 33°44' W 118°12'0 0.0
2018-Jul-13 00:30N 33°44' W 118°12'0 0.0
2018-Jul-13 00:00N 33°44' W 118°12'0 0.0
2018-Jul-12 23:30N 33°44' W 118°12'0 0.0
2018-Jul-12 23:00N 33°44' W 118°12'0 0.0
2018-Jul-12 22:30N 33°44' W 118°12'0 0.0
2018-Jul-12 22:00N 33°44' W 118°12'0 0.0
2018-Jul-12 21:30N 33°44' W 118°12'0 0.0
2018-Jul-12 21:00N 33°44' W 118°12'0 0.0
2018-Jul-12 20:30N 33°44' W 118°12'0 0.1
2018-Jul-12 20:00N 33°44' W 118°12'0 0.1
2018-Jul-12 19:30N 33°44' W 118°12'0 0.2
2018-Jul-12 19:00N 33°44' W 118°12'0 0.0
2018-Jul-12 18:30N 33°44' W 118°12'0 0.1
2018-Jul-12 18:00N 33°44' W 118°12'0 0.0
2018-Jul-12 17:30N 33°44' W 118°12'0 0.0
2018-Jul-12 17:00N 33°44' W 118°12'0 0.0
2018-Jul-12 16:30N 33°44' W 118°12'0 0.1
2018-Jul-12 16:00N 33°44' W 118°12'0 0.1
2018-Jul-12 15:30N 33°44' W 118°12'0 0.0
2018-Jul-12 14:58N 33°44' W 118°12'0 0.2
2018-Jul-12 14:28N 33°44' W 118°12'0 0.1
2018-Jul-12 13:58N 33°44' W 118°12'0 0.1
2018-Jul-12 13:28N 33°44' W 118°12'0 0.1
2018-Jul-12 12:58N 33°44' W 118°12'0 0.1
2018-Jul-12 12:28N 33°44' W 118°12'0 0.0
2018-Jul-12 11:58N 33°44' W 118°12'0 0.0
2018-Jul-12 11:28N 33°44' W 118°12'0 0.0
2018-Jul-12 10:58N 33°44' W 118°12'0 0.0
2018-Jul-12 10:28N 33°44' W 118°12'0 0.0
2018-Jul-12 09:58N 33°44' W 118°12'0 0.0
2018-Jul-12 09:28N 33°44' W 118°12'0 0.0
2018-Jul-12 08:58N 33°44' W 118°12'0 0.0
2018-Jul-12 08:30N 33°44' W 118°12'0 0.1
2018-Jul-12 08:00N 33°44' W 118°12'1 2.8
2018-Jul-12 07:30N 33°43' W 118°11'3 7.0
2018-Jul-12 07:00N 33°39' W 118°11'5 9.8
2018-Jul-12 06:30N 33°36' W 118°15'611.3
2018-Jul-12 06:00N 33°36' W 118°22'611.4
2018-Jul-12 05:30N 33°36' W 118°29'611.4
2018-Jul-12 05:00N 33°36' W 118°36'611.9
2018-Jul-12 04:30N 33°36' W 118°43'611.9
2018-Jul-12 04:00N 33°37' W 118°50'611.6
2018-Jul-12 03:30N 33°38' W 118°57'611.2
2018-Jul-12 03:01N 33°38' W 119°03'612.0
2018-Jul-12 02:30N 33°38' W 119°11'612.1
2018-Jul-12 01:59N 33°38' W 119°18'612.1
2018-Jul-12 01:30N 33°38' W 119°25'611.9
2018-Jul-12 01:00N 33°38' W 119°32'612.1
2018-Jul-12 00:31N 33°38' W 119°40'612.8
2018-Jul-12 00:00N 33°38' W 119°47'612.5
2018-Jul-11 23:30N 33°38' W 119°55'612.4
2018-Jul-11 23:00N 33°38' W 120°02'612.5
2018-Jul-11 22:30N 33°38' W 120°10'612.3
2018-Jul-11 22:00N 33°38' W 120°17'612.1
2018-Jul-11 21:30N 33°38' W 120°24'612.1
2018-Jul-11 21:00N 33°38' W 120°32'4 8.0
2018-Jul-11 20:30N 33°38' W 120°36'510.2
2018-Jul-11 20:01N 33°38' W 120°43'612.0
2018-Jul-11 19:30N 33°38' W 120°50'612.2
2018-Jul-11 19:00N 33°39' W 120°57'612.2
2018-Jul-11 18:30N 33°40' W 121°04'612.3
2018-Jul-11 18:00N 33°42' W 121°11'612.1
2018-Jul-11 17:30N 33°45' W 121°18'612.4
2018-Jul-11 17:00N 33°49' W 121°24'712.3
2018-Jul-11 16:28N 33°53' W 121°30'612.2
2018-Jul-11 16:00N 33°56' W 121°36'612.3
2018-Jul-11 15:30N 33°59' W 121°42'612.2
2018-Jul-11 15:00N 34°03' W 121°48'612.1
2018-Jul-11 14:29N 34°07' W 121°54'611.9
2018-Jul-11 14:00N 34°10' W 121°59'612.0
2018-Jul-11 13:30N 34°14' W 122°05'611.7
2018-Jul-11 13:00N 34°17' W 122°11'612.0
2018-Jul-11 12:30N 34°20' W 122°17'611.8
2018-Jul-11 12:00N 34°24' W 122°23'611.7
2018-Jul-11 11:30N 34°27' W 122°29'611.9
2018-Jul-11 11:00N 34°31' W 122°34'612.2
2018-Jul-11 10:30N 34°35' W 122°40'612.3
2018-Jul-11 10:00N 34°38' W 122°46'612.2
2018-Jul-11 09:31N 34°42' W 122°52'612.1
2018-Jul-11 09:00N 34°45' W 122°58'612.1
2018-Jul-11 08:30N 34°49' W 123°04'612.0
2018-Jul-11 08:00N 34°52' W 123°10'611.9
2018-Jul-11 07:30N 34°56' W 123°16'611.9
2018-Jul-11 07:00N 34°59' W 123°22'612.0
2018-Jul-11 06:30N 35°03' W 123°28'611.8
2018-Jul-11 06:00N 35°06' W 123°34'611.8
2018-Jul-11 05:30N 35°09' W 123°40'611.7
2018-Jul-11 05:00N 35°13' W 123°46'612.0
2018-Jul-11 04:30N 35°16' W 123°52'611.8
2018-Jul-11 04:00N 35°20' W 123°58'611.9
2018-Jul-11 03:30N 35°23' W 124°04'611.7
2018-Jul-11 03:00N 35°27' W 124°09'611.8
2018-Jul-11 02:30N 35°30' W 124°15'612.0
2018-Jul-11 01:59N 35°34' W 124°21'611.9
2018-Jul-11 01:30N 35°37' W 124°27'711.8
2018-Jul-11 00:57N 35°41' W 124°34'511.8
2018-Jul-11 00:30N 35°44' W 124°39'611.6
2018-Jul-11 00:00N 35°47' W 124°45'611.6
2018-Jul-10 23:30N 35°51' W 124°50'611.5
2018-Jul-10 23:00N 35°54' W 124°56'611.6
2018-Jul-10 22:30N 35°58' W 125°02'611.8
2018-Jul-10 21:59N 36°01' W 125°08'811.7
2018-Jul-10 21:20N 36°06' W 125°16'711.7
2018-Jul-10 20:44N 36°10' W 125°23'312.1
2018-Jul-10 20:30N 36°12' W 125°25'8512.1
2018-Jul-10 13:32N 37°00' W 126°52'112.1
2018-Jul-10 13:29N 37°01' W 126°52'3813.0
2018-Jul-10 10:33N 37°23' W 127°31'113.0
2018-Jul-10 10:30N 37°24' W 127°32'1413.0
2018-Jul-10 09:27N 37°31' W 127°46'1713.0
2018-Jul-10 08:10N 37°41' W 128°03'213.1
2018-Jul-10 08:00N 37°43' W 128°04'713.0
2018-Jul-10 07:28N 37°49' W 128°09'612.8
2018-Jul-10 07:00N 37°54' W 128°13'612.9
2018-Jul-10 06:30N 37°59' W 128°18'  

Dump ship's entire track history